createdAt,value
2022-08-28T00:01:08.599Z,14.75
2022-08-28T00:03:40.210Z,13.60
2022-08-28T00:06:12.893Z,16.15
2022-08-28T00:08:43.966Z,13.45
2022-08-28T00:11:15.449Z,14.45
2022-08-28T00:13:46.601Z,13.25
2022-08-28T00:16:19.141Z,14.43
2022-08-28T00:18:50.164Z,13.38
2022-08-28T00:21:21.268Z,14.90
2022-08-28T00:23:54.415Z,14.10
2022-08-28T00:26:39.994Z,15.63
2022-08-28T00:29:11.533Z,16.70
2022-08-28T00:31:42.679Z,12.78
2022-08-28T00:34:14.428Z,16.55
2022-08-28T00:36:45.643Z,13.60
2022-08-28T00:39:17.567Z,16.05
2022-08-28T00:41:51.335Z,14.73
2022-08-28T00:44:26.840Z,14.05
2022-08-28T00:47:00.555Z,14.38
2022-08-28T00:49:34.448Z,17.52
2022-08-28T00:52:12.659Z,13.90
2022-08-28T00:54:59.034Z,14.35
2022-08-28T00:57:35.137Z,15.13
2022-08-28T01:00:09.182Z,17.23
2022-08-28T01:02:40.594Z,14.65
2022-08-28T01:05:13.372Z,13.95
2022-08-28T01:07:45.590Z,13.50
2022-08-28T01:10:19.843Z,15.58
2022-08-28T01:12:51.620Z,16.42
2022-08-28T01:15:25.643Z,24.07
2022-08-28T01:18:02.552Z,31.90
2022-08-28T01:20:36.661Z,50.05
2022-08-28T01:23:25.520Z,55.50
2022-08-28T01:26:00.661Z,55.17
2022-08-28T01:28:32.637Z,49.13
2022-08-28T01:31:03.609Z,34.95
2022-08-28T01:33:34.951Z,26.33
2022-08-28T01:36:07.682Z,20.35
2022-08-28T01:38:40.872Z,23.00
2022-08-28T01:41:15.744Z,20.35
2022-08-28T01:43:47.626Z,17.95
2022-08-28T01:46:20.144Z,16.40
2022-08-28T01:48:51.230Z,18.07
2022-08-28T01:51:24.635Z,14.45
2022-08-28T01:53:56.942Z,17.20
2022-08-28T01:56:30.328Z,15.68
2022-08-28T01:59:04.166Z,14.55
2022-08-28T02:01:35.956Z,16.77
2022-08-28T02:04:07.477Z,14.23
2022-08-28T02:06:38.854Z,14.83
2022-08-28T02:09:14.874Z,14.98
2022-08-28T02:11:46.767Z,16.55
2022-08-28T02:14:18.075Z,15.55
2022-08-28T02:16:49.542Z,14.68
2022-08-28T02:19:21.412Z,16.77
2022-08-28T02:21:53.153Z,14.75
2022-08-28T02:24:24.332Z,15.78
2022-08-28T02:26:55.681Z,13.85
2022-08-28T02:29:27.622Z,14.63
2022-08-28T02:31:58.826Z,15.03
2022-08-28T02:34:30.144Z,18.20
2022-08-28T02:37:01.914Z,14.90
2022-08-28T02:39:33.392Z,14.95
2022-08-28T02:42:04.642Z,14.63
2022-08-28T02:44:36.276Z,16.85
2022-08-28T02:47:07.977Z,16.77
2022-08-28T02:49:39.652Z,16.40
2022-08-28T02:52:11.025Z,15.93
2022-08-28T02:54:42.503Z,16.17
2022-08-28T02:57:14.011Z,14.87
2022-08-28T02:59:46.819Z,16.67
2022-08-28T03:02:18.055Z,14.85
2022-08-28T03:04:49.360Z,15.20
2022-08-28T03:07:23.111Z,18.02
2022-08-28T03:09:54.224Z,17.48
2022-08-28T03:12:26.040Z,14.45
2022-08-28T03:14:57.526Z,16.97
2022-08-28T03:17:29.107Z,15.03
2022-08-28T03:20:01.068Z,13.98
2022-08-28T03:22:45.618Z,14.78
2022-08-28T03:25:17.853Z,16.00
2022-08-28T03:27:49.218Z,14.83
2022-08-28T03:30:22.034Z,14.87
2022-08-28T03:32:54.413Z,14.15
2022-08-28T03:35:25.600Z,14.80
2022-08-28T03:37:56.710Z,14.38
2022-08-28T03:40:27.958Z,14.45
2022-08-28T03:42:59.222Z,14.80
2022-08-28T03:45:31.080Z,14.83
2022-08-28T03:48:05.087Z,14.13
2022-08-28T03:50:37.263Z,14.80
2022-08-28T03:53:09.545Z,14.80
2022-08-28T03:55:43.205Z,14.70
2022-08-28T03:58:18.808Z,16.52
2022-08-28T04:00:48.750Z,16.00
2022-08-28T04:03:20.570Z,15.70
2022-08-28T04:05:52.437Z,14.93
2022-08-28T04:08:23.905Z,16.10
2022-08-28T04:10:55.560Z,14.98
2022-08-28T04:13:26.445Z,17.10
2022-08-28T04:16:03.431Z,14.75
2022-08-28T04:18:36.057Z,16.00
2022-08-28T04:21:10.245Z,14.55
2022-08-28T04:23:46.152Z,16.23
2022-08-28T04:26:20.380Z,14.90
2022-08-28T04:28:53.831Z,17.45
2022-08-28T04:31:31.096Z,17.42
2022-08-28T04:34:01.043Z,15.03
2022-08-28T04:36:35.352Z,14.47
2022-08-28T04:39:11.480Z,14.73
2022-08-28T04:41:42.954Z,16.07
2022-08-28T04:44:14.210Z,15.28
2022-08-28T04:46:48.308Z,15.53
2022-08-28T04:49:19.994Z,16.35
2022-08-28T04:51:51.473Z,16.67
2022-08-28T04:54:22.752Z,18.02
2022-08-28T04:56:54.271Z,17.73
2022-08-28T04:59:25.513Z,15.25
2022-08-28T05:01:56.873Z,16.75
2022-08-28T05:04:28.493Z,15.68
2022-08-28T05:06:59.748Z,17.15
2022-08-28T05:09:32.282Z,15.65
2022-08-28T05:12:06.037Z,14.40
2022-08-28T05:14:38.137Z,17.10
2022-08-28T05:17:10.086Z,14.85
2022-08-28T05:19:41.781Z,20.48
2022-08-28T05:22:12.986Z,14.55
2022-08-28T05:24:44.377Z,14.33
2022-08-28T05:27:15.627Z,15.45
2022-08-28T05:29:46.659Z,14.68
2022-08-28T05:32:17.599Z,15.03
2022-08-28T05:34:48.987Z,13.45
2022-08-28T05:37:20.492Z,16.93
2022-08-28T05:39:51.830Z,16.12
2022-08-28T05:42:23.467Z,14.58
2022-08-28T05:44:59.341Z,17.77
2022-08-28T05:47:32.156Z,15.50
2022-08-28T05:50:03.857Z,17.10
2022-08-28T05:52:36.487Z,18.15
2022-08-28T05:55:09.456Z,18.25
2022-08-28T05:57:41.816Z,16.48
2022-08-28T06:00:14.141Z,15.43
2022-08-28T06:02:45.395Z,15.50
2022-08-28T06:05:18.259Z,18.17
2022-08-28T06:07:53.208Z,17.02
2022-08-28T06:10:24.365Z,18.87
2022-08-28T06:12:56.464Z,16.80
2022-08-28T06:15:27.567Z,18.90
2022-08-28T06:17:58.745Z,18.05
2022-08-28T06:20:30.075Z,20.05
2022-08-28T06:23:01.321Z,15.60
2022-08-28T06:25:32.567Z,18.30
2022-08-28T06:28:04.401Z,16.90
2022-08-28T06:30:52.744Z,19.50
2022-08-28T06:33:21.855Z,16.50
2022-08-28T06:36:32.248Z,16.97
2022-08-28T06:39:05.743Z,16.52
2022-08-28T06:41:39.455Z,16.80
2022-08-28T06:44:13.074Z,17.17
2022-08-28T06:46:48.413Z,16.32
2022-08-28T06:49:26.278Z,19.30
2022-08-28T06:52:03.670Z,15.25
2022-08-28T06:54:38.121Z,21.57
2022-08-28T06:57:14.859Z,20.68
2022-08-28T06:59:50.979Z,18.32
2022-08-28T07:05:37.931Z,21.50
2022-08-28T07:08:26.682Z,20.30
2022-08-28T07:14:26.937Z,22.50
2022-08-28T07:16:58.056Z,18.42
2022-08-28T07:19:29.006Z,17.75
2022-08-28T07:22:00.410Z,19.42
2022-08-28T07:24:34.226Z,17.90
2022-08-28T07:27:06.006Z,17.77
2022-08-28T07:29:36.920Z,19.32
2022-08-28T07:32:09.380Z,19.85
2022-08-28T07:34:42.227Z,21.20
2022-08-28T07:37:15.357Z,23.35
2022-08-28T07:39:45.928Z,18.12
2022-08-28T07:42:18.765Z,21.37
2022-08-28T07:44:54.121Z,23.38
2022-08-28T07:47:26.410Z,18.40
2022-08-28T07:49:58.181Z,18.12
2022-08-28T07:52:31.423Z,17.70
2022-08-28T07:55:02.241Z,18.67
